Home > Products > Valid Products > MTR

000
SAUS45 KTWC 181852
MTRSAD
METAR KSAD 181851Z AUTO 16006KT 10SM -RA OVC055 08/06 A3011 RMK AO2
RAB25 SLP187 P0000 T00830061





000
SAUS45 KTWC 181753
MTRSAD
METAR KSAD 181751Z AUTO 14004KT 10SM SCT023 BKN038 OVC060 09/06
A3014 RMK AO2 SLP196 60000 T00890056 10089 20050 51004





000
SAUS45 KTWC 181652
MTRSAD
METAR KSAD 181651Z AUTO 12005KT 10SM FEW042 BKN065 OVC075 08/06
A3014 RMK AO2 RAE08B25E51 SLP198 P0000 T00780061





000
SAUS45 KTWC 181552
MTRSAD
METAR KSAD 181551Z AUTO 11004KT 10SM -RA FEW025 BKN043 OVC070 07/06
A3014 RMK AO2 RAB11 SLP196 P0000 T00720056





000
SAUS45 KTWC 181519
MTRSAD
SPECI KSAD 181518Z AUTO 13006KT 10SM -RA SCT024 BKN075 OVC090 06/05
A3013 RMK AO2 RAB11 P0000 T00610050





000
SAUS45 KTWC 181453
MTRSAD
METAR KSAD 181451Z AUTO 11005KT 10SM BKN024 OVC080 06/05 A3013 RMK
AO2 SLP195 T00610050 51004





000
SAUS45 KTWC 181403
MTRSAD
SPECI KSAD 181402Z AUTO 14006KT 10SM BKN020 OVC110 06/05 A3013 RMK
AO2 T00560050





000
SAUS45 KTWC 181403
MTRSAD
SPECI KSAD 181402Z AUTO 14006KT 10SM BKN020 OVC110 06/05 A3013 RMK
AO2 T00560050





000
SAUS45 KTWC 181353
MTRSAD
METAR KSAD 181351Z AUTO 14004KT 10SM SCT020 BKN110 06/05 A3013 RMK
AO2 SLP194 T00560050





000
SAUS45 KTWC 181353
MTRSAD
METAR KSAD 181351Z AUTO 14004KT 10SM SCT020 BKN110 06/05 A3013 RMK
AO2 SLP194 T00560050





000
SAUS45 KTWC 181252
MTRSAD
METAR KSAD 181251Z AUTO 10003KT 10SM FEW085 06/05 A3012 RMK AO2
SLP190 T00560050





000
SAUS45 KTWC 181252
MTRSAD
METAR KSAD 181251Z AUTO 10003KT 10SM FEW085 06/05 A3012 RMK AO2
SLP190 T00560050





000
SAUS45 KTWC 181152
MTRSAD
METAR KSAD 181151Z AUTO 14003KT 10SM FEW002 SCT070 OVC085 06/06
A3012 RMK AO2 SLP189 60000 70020 T00610056 10078 20050 58004





000
SAUS45 KTWC 181152
MTRSAD
METAR KSAD 181151Z AUTO 14003KT 10SM FEW002 SCT070 OVC085 06/06
A3012 RMK AO2 SLP189 60000 70020 T00610056 10078 20050 58004





000
SAUS45 KTWC 181146
MTRSAD
SPECI KSAD 181145Z AUTO 12005KT 4SM BR FEW002 OVC085 06/06 A3012 RMK
AO2





000
SAUS45 KTWC 181134
MTRSAD
SPECI KSAD 181133Z AUTO 15005KT 1 1/2SM BR SCT003 BKN080 06/06 A3012
RMK AO2 T00610056





000
SAUS45 KTWC 181132
MTRSAD
SPECI KSAD 181131Z AUTO 16004KT 4SM BR SCT003 BKN080 06/06 A3012 RMK
AO2 T00610056





000
SAUS45 KTWC 181052
MTRSAD
METAR KSAD 181051Z AUTO 06003KT 10SM SCT060 06/06 A3013 RMK AO2
SLP192 T00610056





000
SAUS45 KTWC 181052
MTRSAD
METAR KSAD 181051Z AUTO 06003KT 10SM SCT060 06/06 A3013 RMK AO2
SLP192 T00610056





000
SAUS45 KTWC 181023
MTRSAD
SPECI KSAD 181022Z AUTO 00000KT 10SM SCT026 BKN065 07/06 A3013 RMK
AO2 T00670056





000
SAUS45 KTWC 180952
MTRSAD
METAR KSAD 180951Z AUTO 00000KT 10SM BKN020 OVC027 07/06 A3013 RMK
AO2 SLP188 T00720061





000
SAUS45 KTWC 180931
MTRSAD
SPECI KSAD 180930Z AUTO 22004KT 10SM FEW018 BKN027 OVC032 07/06
A3014 RMK AO2 T00670061





000
SAUS45 KTWC 180853
MTRSAD
METAR KSAD 180851Z AUTO 00000KT 10SM FEW032 SCT060 BKN070 07/06
A3013 RMK AO2 RAB0754E12 SLP189 P0000 60000 T00670056 57007





000
SAUS45 KTWC 180853
MTRSAD
METAR KSAD 180851Z AUTO 00000KT 10SM FEW032 SCT060 BKN070 07/06
A3013 RMK AO2 RAB0754E12 SLP189 P0000 60000 T00670056 57007





000
SAUS45 KTWC 180752
MTRSAD
METAR KSAD 180751Z AUTO 00000KT 10SM OVC035 07/06 A3014 RMK AO2
SLP190 T00720061





000
SAUS45 KTWC 180752
MTRSAD
METAR KSAD 180751Z AUTO 00000KT 10SM OVC035 07/06 A3014 RMK AO2
SLP190 T00720061





000
SAUS45 KTWC 180652
MTRSAD
METAR KSAD 180651Z AUTO 00000KT 10SM FEW007 OVC041 07/06 A3015 RMK
AO2 RAE12 SLP196 P0000 T00720061 401330061





000
SAUS45 KTWC 180638
MTRSAD
SPECI KSAD 180636Z AUTO 19004KT 10SM SCT007 OVC045 07/06 A3015 RMK
AO2 RAE12 P0000 T00720061





000
SAUS45 KTWC 180630
MTRSAD
SPECI KSAD 180629Z AUTO 19004KT 10SM BKN007 BKN045 OVC095 07/06
A3015 RMK AO2 RAE12 P0000 T00720061





000
SAUS45 KTWC 180622
MTRSAD
SPECI KSAD 180621Z AUTO 19003KT 10SM SCT007 BKN047 OVC100 07/06
A3015 RMK AO2 RAE12 P0000 T00720061





000
SAUS45 KTWC 180552
MTRSAD
METAR KSAD 180551Z AUTO 00000KT 10SM -RA BKN055 OVC065 08/07 A3015
RMK AO2 SLP198 P0001 60009 T00780067 10089 20072 51009





000
SAUS45 KTWC 180452
MTRSAD
METAR KSAD 180451Z AUTO 00000KT 8SM -RA OVC050 08/07 A3015 RMK AO2
SLP200 P0002 T00780067





000
SAUS45 KTWC 180352
MTRSAD
METAR KSAD 180351Z AUTO 29004KT 10SM -RA OVC060 08/07 A3013 RMK AO2
RAB07 SLP193 P0001 T00780067





000
SAUS45 KTWC 180352
MTRSAD
METAR KSAD 180351Z AUTO 29004KT 10SM -RA OVC060 08/07 A3013 RMK AO2
RAB07 SLP193 P0001 T00780067





000
SAUS45 KTWC 180253
MTRSAD
METAR KSAD 180251Z AUTO 29006KT 10SM BKN049 OVC090 08/07 A3012 RMK
AO2 RAB0152E51 SLP190 P0001 60005 T00830067 51018





000
SAUS45 KTWC 180153
MTRSAD
METAR KSAD 180151Z AUTO 33006KT 10SM FEW029 SCT048 OVC070 08/07
A3011 RMK AO2 RAE43 SLP186 P0000 T00830067





000
SAUS45 KTWC 180153
MTRSAD
METAR KSAD 180151Z AUTO 33006KT 10SM FEW029 SCT048 OVC070 08/07
A3011 RMK AO2 RAE43 SLP186 P0000 T00830067





000
SAUS45 KTWC 180052
MTRSAD
METAR KSAD 180051Z AUTO 31006KT 10SM -RA FEW027 SCT042 OVC049 09/07
A3008 RMK AO2 SLP175 P0004 T00890067





000
SAUS45 KTWC 172352
MTRSAD
METAR KSAD 172351Z AUTO 26004KT 10SM -RA SCT029 BKN039 OVC050 09/07
A3006 RMK AO2 SLP168 P0007 60010 T00890072 10133 20089 53010





000
SAUS45 KTWC 172310
MTRSAD
SPECI KSAD 172309Z AUTO 25008KT 6SM -RA BR FEW025 BKN034 OVC046
09/07 A3006 RMK AO2 P0004 T00940072





000
SAUS45 KTWC 172252
MTRSAD
METAR KSAD 172251Z AUTO 21010KT 2SM RA BR SCT026 OVC035 09/07 A3005
RMK AO2 RAB39 SLP161 P0003 T00940072





000
SAUS45 KTWC 172152
MTRSAD
METAR KSAD 172151Z AUTO 30013KT 10SM FEW041 SCT050 12/04 A3002 RMK
AO2 SLP151 T01220039





000
SAUS45 KTWC 172152
MTRSAD
METAR KSAD 172151Z AUTO 30013KT 10SM FEW041 SCT050 12/04 A3002 RMK
AO2 SLP151 T01220039





000
SAUS45 KTWC 172052
MTRSAD
METAR KSAD 172051Z AUTO 32010KT 10SM SCT030 BKN036 BKN055 12/04
A3003 RMK AO2 RAB1957E10 SLP154 P0000 60000 T01220044 58019





000
SAUS45 KTWC 171952
MTRSAD
METAR KSAD 171951Z AUTO 32005KT 10SM FEW027 BKN060 BKN075 12/06
A3005 RMK AO2 SLP158 T01220056





000
SAUS45 KTWC 171910
MTRSAD
SPECI KSAD 171909Z AUTO 31005KT 10SM SCT021 SCT029 BKN037 11/04
A3007 RMK AO2 T01060044





000
SAUS45 KTWC 171852
MTRSAD
METAR KSAD 171851Z AUTO 34007KT 10SM BKN021 OVC030 11/05 A3008 RMK
AO2 SLP170 T01060050





000
SAUS45 KTWC 171841
MTRSAD
SPECI KSAD 171840Z AUTO 00000KT 10SM BKN021 OVC029 10/05 A3009 RMK
AO2 T01000050





000
SAUS45 KTWC 171752
MTRSAD
METAR KSAD 171751Z AUTO 00000KT 10SM FEW034 BKN048 OVC080 09/07
A3009 RMK AO2 RAE22 SLP175 P0000 60001 T00940067 10094 20061 51016





000
SAUS45 KTWC 171653
MTRSAD
METAR KSAD 171651Z AUTO 00000KT 10SM -RA BKN034 OVC045 08/06 A3008
RMK AO2 SLP174 P0001 T00780056





000
SAUS45 KTWC 171552
MTRSAD
METAR KSAD 171551Z AUTO 34003KT 10SM -RA OVC036 08/05 A3006 RMK AO2
RAB34 SLP167 P0000 T00780050





000
SAUS45 KTWC 171552
MTRSAD
METAR KSAD 171551Z AUTO 34003KT 10SM -RA OVC036 08/05 A3006 RMK AO2
RAB34 SLP167 P0000 T00780050





000
SAUS45 KTWC 171452
MTRSAD
METAR KSAD 171451Z AUTO 00000KT 10SM BKN040 OVC065 07/04 A3004 RMK
AO2 SLP162 60000 T00670044 53010





000
SAUS45 KTWC 171352
MTRSAD
METAR KSAD 171351Z AUTO 15004KT 10SM BKN075 OVC095 07/04 A3002 RMK
AO2 SLP154 T00670039





000
SAUS45 KTWC 171253
MTRSAD
METAR KSAD 171251Z AUTO 35006KT 10SM BKN065 OVC095 08/04 A3000 RMK
AO2 RAE34 SLP143 P0000 T00780044





000
SAUS45 KTWC 171152
MTRSAD
METAR KSAD 171151Z AUTO 34004KT 10SM -RA BKN050 OVC055 08/03 A3001
RMK AO2 RAB1059E08B29 SLP142 P0000 60000 T00780028 10100 20067 53005





000
SAUS45 KTWC 171053
MTRSAD
METAR KSAD 171051Z AUTO 12005KT 10SM SCT070 BKN085 OVC120 08/01
A2999 RMK AO2 SLP135 T00780006





000
SAUS45 KTWC 170952
MTRSAD
METAR KSAD 170951Z AUTO 13005KT 10SM SCT065 BKN085 07/01 A2999 RMK
AO2 SLP137 T00720011





000
SAUS45 KTWC 170952
MTRSAD
METAR KSAD 170951Z AUTO 13005KT 10SM SCT065 BKN085 07/01 A2999 RMK
AO2 SLP137 T00720011





000
SAUS45 KTWC 170852
MTRSAD
METAR KSAD 170851Z AUTO 14004KT 10SM SCT080 07/01 A2999 RMK AO2
SLP137 T00670011 57000





000
SAUS45 KTWC 170852
MTRSAD
METAR KSAD 170851Z AUTO 14004KT 10SM SCT080 07/01 A2999 RMK AO2
SLP137 T00670011 57000





000
SAUS45 KTWC 170752
MTRSAD
METAR KSAD 170751Z AUTO 34005KT 10SM FEW120 10/00 A2998 RMK AO2
SLP129 T01000000





000
SAUS45 KTWC 170752
MTRSAD
METAR KSAD 170751Z AUTO 34005KT 10SM FEW120 10/00 A2998 RMK AO2
SLP129 T01000000





000
SAUS45 KTWC 170652
MTRSAD
METAR KSAD 170651Z AUTO 29008KT 10SM OVC080 09/00 A3001 RMK AO2
SLP143 T00890000 401670078





000
SAUS45 KTWC 170553
MTRSAD
METAR KSAD 170551Z AUTO 17006KT 10SM BKN080 09/M01 A3000 RMK AO2
SLP138 T00891006 10150 20078 53001





000
SAUS45 KTWC 170453
MTRSAD
METAR KSAD 170451Z AUTO 13006KT 10SM BKN080 09/M01 A2998 RMK AO2
SLP136 T00941006





000
SAUS45 KTWC 170453
MTRSAD
METAR KSAD 170451Z AUTO 13006KT 10SM BKN080 09/M01 A2998 RMK AO2
SLP136 T00941006





000
SAUS45 KTWC 170352
MTRSAD
METAR KSAD 170351Z AUTO 00000KT 10SM BKN085 08/00 A2999 RMK AO2
SLP143 T00780000





000
SAUS45 KTWC 170352
MTRSAD
METAR KSAD 170351Z AUTO 00000KT 10SM BKN085 08/00 A2999 RMK AO2
SLP143 T00780000





000
SAUS45 KTWC 170252
MTRSAD
METAR KSAD 170251Z AUTO 13005KT 10SM CLR 08/M01 A2999 RMK AO2 SLP142
T00831006 53002





000
SAUS45 KTWC 170152
MTRSAD
METAR KSAD 170151Z AUTO 11006KT 10SM CLR 11/M01 A2999 RMK AO2 SLP138
T01061011





000
SAUS45 KTWC 170052
MTRSAD
METAR KSAD 170051Z AUTO 04004KT 10SM CLR 13/M02 A2998 RMK AO2 SLP133
T01281017





000
SAUS45 KTWC 162352
MTRSAD
METAR KSAD 162351Z AUTO 19004KT 10SM CLR 15/M02 A2998 RMK AO2 SLP133
T01501022 10167 20128 55003





000
SAUS45 KTWC 162253
MTRSAD
METAR KSAD 162251Z AUTO 17007KT 10SM CLR 16/M03 A2998 RMK AO2 SLP130
T01611033





000
SAUS45 KTWC 162153
MTRSAD
METAR KSAD 162151Z AUTO 18005KT 10SM CLR 16/M04 A2999 RMK AO2 SLP133
T01561039





000
SAUS45 KTWC 162052
MTRSAD
METAR KSAD 162051Z AUTO VRB05KT 10SM CLR 16/M03 A2999 RMK AO2 SLP133
T01611033 56034





000
SAUS45 KTWC 161952
MTRSAD
METAR KSAD 161951Z AUTO 12005KT 10SM CLR 16/M04 A3003 RMK AO2 SLP146
T01561044





000
SAUS45 KTWC 161852
MTRSAD
METAR KSAD 161851Z AUTO 14005KT 10SM CLR 14/M03 A3007 RMK AO2 SLP164
T01391028





000
SAUS45 KTWC 161752
MTRSAD
METAR KSAD 161751Z AUTO 12011KT 10SM CLR 13/M03 A3010 RMK AO2 SLP177
T01331033 10139 20083 50006





000
SAUS45 KTWC 161653
MTRSAD
METAR KSAD 161651Z AUTO 13008KT 10SM CLR 11/M02 A3012 RMK AO2 SLP183
T01111022





000
SAUS45 KTWC 161552
MTRSAD
METAR KSAD 161551Z AUTO 12006KT 10SM CLR 10/M02 A3010 RMK AO2 SLP179
T01001022





000
SAUS45 KTWC 161452
MTRSAD
METAR KSAD 161451Z AUTO 13010KT 10SM CLR 09/M02 A3008 RMK AO2 SLP177
T00891022 53008





000
SAUS45 KTWC 161352
MTRSAD
METAR KSAD 161351Z AUTO 11010KT 10SM CLR 09/M02 A3007 RMK AO2 SLP171
T00891017





000
SAUS45 KTWC 161252
MTRSAD
METAR KSAD 161251Z AUTO 13009KT 10SM CLR 09/M02 A3006 RMK AO2 SLP164
T00941017





000
SAUS45 KTWC 161153
MTRSAD
METAR KSAD 161151Z AUTO 11011KT 10SM CLR 09/M02 A3006 RMK AO2 SLP160
T00891017 10100 20061 58001





000
SAUS45 KTWC 161053
MTRSAD
METAR KSAD 161051Z AUTO 14010KT 10SM CLR 09/M01 A3006 RMK AO2 SLP161
T00941011





000
SAUS45 KTWC 160952
MTRSAD
METAR KSAD 160951Z AUTO 12011KT 10SM CLR 10/M01 A3007 RMK AO2 SLP163
T01001011





000
SAUS45 KTWC 160952
MTRSAD
METAR KSAD 160951Z AUTO 12011KT 10SM CLR 10/M01 A3007 RMK AO2 SLP163
T01001011





000
SAUS45 KTWC 160852
MTRSAD
METAR KSAD 160851Z AUTO 13012KT 10SM CLR 10/M01 A3006 RMK AO2 SLP160
T01001011 56008





000
SAUS45 KTWC 160752
MTRSAD
METAR KSAD 160751Z AUTO 13011KT 10SM CLR 09/00 A3006 RMK AO2 SLP164
T00940000





000
SAUS45 KTWC 160652
MTRSAD
METAR KSAD 160651Z AUTO 11008KT 10SM CLR 07/01 A3007 RMK AO2 SLP171
T00670011 401391011





000
SAUS45 KTWC 160552
MTRSAD
METAR KSAD 160551Z AUTO 18006KT 10SM CLR 07/01 A3009 RMK AO2 SLP176
T00720011 10133 20067 51006





000
SAUS45 KTWC 160452
MTRSAD
METAR KSAD 160451Z AUTO 11009KT 10SM CLR 09/01 A3008 RMK AO2 SLP176
T00890006





000
SAUS45 KTWC 160353
MTRSAD
METAR KSAD 160351Z AUTO 12005KT 10SM CLR 08/02 A3008 RMK AO2 SLP179
T00780017





000
SAUS45 KTWC 160353
MTRSAD
METAR KSAD 160351Z AUTO 12005KT 10SM CLR 08/02 A3008 RMK AO2 SLP179
T00780017





000
SAUS45 KTWC 160252
MTRSAD
METAR KSAD 160251Z AUTO 10006KT 10SM CLR 07/02 A3007 RMK AO2 SLP180
T00670017 52008





000
SAUS45 KTWC 160152
MTRSAD
METAR KSAD 160151Z AUTO 05007KT 10SM CLR 08/02 A3006 RMK AO2 SLP179
T00830017





000
SAUS45 KTWC 160052
MTRSAD
METAR KSAD 160051Z AUTO 00000KT 10SM CLR 10/02 A3005 RMK AO2 SLP170
T01000022





000
SAUS45 KTWC 152352
MTRSAD
METAR KSAD 152351Z AUTO 22003KT 10SM CLR 13/M02 A3004 RMK AO2 SLP164
T01331017 10139 20094 56008





000
SAUS45 KTWC 152252
MTRSAD
METAR KSAD 152251Z AUTO 14004KT 10SM CLR 14/M03 A3005 RMK AO2 SLP165
T01391033





000
SAUS45 KTWC 152152
MTRSAD
METAR KSAD 152151Z AUTO 15003KT 10SM CLR 13/M01 A3006 RMK AO2 SLP168
T01331011





000
SAUS45 KTWC 152152
MTRSAD
METAR KSAD 152151Z AUTO 15003KT 10SM CLR 13/M01 A3006 RMK AO2 SLP168
T01331011





000
SAUS45 KTWC 152053
MTRSAD
METAR KSAD 152051Z AUTO 15005KT 10SM CLR 13/00 A3007 RMK AO2 SLP173
T01280000 56029





000
SAUS45 KTWC 151952
MTRSAD
METAR KSAD 151951Z AUTO 17005KT 10SM CLR 12/01 A3009 RMK AO2 SLP182
T01170011





    US Dept of Commerce
    National Oceanic and Atmospheric Administration
    National Weather Service
    1325 East West Highway
    Silver Spring, MD 20910
    Page Author: NWS Internet Services Team
Disclaimer
Information Quality
Credits
Glossary
Privacy Policy
Freedom of Information Act (FOIA)
About Us
Career Opportunities